Terminal Aerodrome Forecast
Issued by NWS Portland, OR

Home | Current Version | Previous Version | Text Only | Print | Product List | Glossary On
Versions: 1 2 3 4 5 6 7 8 9 10 11 12 13 14 15 16 17
000
FTUS46 KPQR 051720 AAB
TAFEUG
TAF AMD
KEUG 051720Z 0517/0612 01010KT P6SM OVC020
     FM052000 01010KT P6SM SCT025 BKN040
     FM052200 36012KT P6SM SCT045 BKN120
     FM060400 02007KT P6SM BKN080
     FM060900 03005KT P6SM SCT030 BKN060=

USA.gov is the U.S. government's official web portal to all federal, state and local government web resources and services.